Time;durP1;ratioP1;P1;durP2;ratioP2;P2;SDS_P1;SDS_P2;PMS_P1;PMS_P2;Temp;Humidity;BMP_temperature;BMP_pressure;BME280_temperature;BME280_humidity;BME280_pressure;Samples;Min_cycle;Max_cycle;Signal;HPM_P1;HPM_P2
2021/01/21 00:01:33;;;;;;;30.00;14.50;;;;;;;-3.66;61.68;100946.06;1812783;79;21029;-57
2021/01/21 00:04:01;;;;;;;29.27;14.30;;;;;;;-3.69;61.67;100953.05;1812963;79;20969;-56
2021/01/21 00:06:30;;;;;;;32.00;15.53;;;;;;;-3.71;61.72;100947.03;1813000;79;21475;-56
2021/01/21 00:08:58;;;;;;;34.07;17.37;;;;;;;-3.71;61.77;100956.34;1812898;79;20921;-56
2021/01/21 00:11:26;;;;;;;36.07;17.37;;;;;;;-3.68;61.78;100953.38;1813072;79;21072;-55
2021/01/21 00:13:55;;;;;;;29.63;15.27;;;;;;;-3.60;61.69;100955.23;1812927;79;20993;-56
2021/01/21 00:16:23;;;;;;;30.73;14.77;;;;;;;-3.56;61.52;100945.13;1812987;79;21491;-56
2021/01/21 00:18:51;;;;;;;33.67;15.67;;;;;;;-3.62;61.50;100945.77;1812983;79;21381;-55
2021/01/21 00:21:18;;;;;;;30.57;17.07;;;;;;;-3.71;61.59;100928.92;1812875;79;20945;-57
2021/01/21 00:23:46;;;;;;;35.23;17.47;;;;;;;-3.71;61.80;100930.25;1812979;79;20922;-57
2021/01/21 00:26:14;;;;;;;30.97;16.43;;;;;;;-3.68;61.73;100933.94;1812874;79;21158;-56
2021/01/21 00:28:42;;;;;;;34.70;16.87;;;;;;;-3.63;61.68;100926.31;1812998;79;21060;-58
2021/01/21 00:31:12;;;;;;;24.43;12.60;;;;;;;-3.58;61.57;100927.17;1812970;79;21373;-58
2021/01/21 00:33:40;;;;;;;28.83;15.00;;;;;;;-3.55;61.55;100916.20;1812922;79;20902;-56
2021/01/21 00:36:08;;;;;;;29.23;15.70;;;;;;;-3.56;61.54;100918.52;1812917;79;20922;-60
2021/01/21 00:38:36;;;;;;;29.73;15.53;;;;;;;-3.59;61.53;100916.20;1812909;79;21084;-56
2021/01/21 00:41:04;;;;;;;31.30;17.10;;;;;;;-3.61;61.65;100916.84;1813033;79;21527;-59
2021/01/21 00:43:32;;;;;;;25.30;13.20;;;;;;;-3.57;61.67;100919.52;1812937;79;21364;-57
2021/01/21 00:46:01;;;;;;;29.80;15.17;;;;;;;-3.50;61.58;100921.37;1812876;79;21019;-58
2021/01/21 00:48:29;;;;;;;26.67;14.17;;;;;;;-3.50;61.46;100920.04;1813055;79;21477;-58
2021/01/21 00:50:58;;;;;;;26.27;14.50;;;;;;;-3.48;61.45;100911.42;1813047;79;21068;-57
2021/01/21 00:53:25;;;;;;;28.53;14.57;;;;;;;-3.49;61.49;100900.95;1813016;79;21028;-57
2021/01/21 00:55:53;;;;;;;26.37;14.80;;;;;;;-3.50;61.55;100895.27;1813053;79;21475;-57
2021/01/21 00:58:21;;;;;;;22.87;13.37;;;;;;;-3.50;61.59;100903.25;1812874;79;21115;-58
2021/01/21 01:00:50;;;;;;;26.43;14.27;;;;;;;-3.50;61.67;100905.91;1812421;79;20882;-57
2021/01/21 01:03:19;;;;;;;31.07;15.63;;;;;;;-3.47;61.71;100901.61;1809922;79;20921;-58
2021/01/21 01:05:47;;;;;;;23.03;12.27;;;;;;;-3.45;61.62;100898.28;1809906;79;20926;-57
2021/01/21 01:08:15;;;;;;;31.23;14.73;;;;;;;-3.45;61.72;100891.16;1781031;79;21382;-57
2021/01/21 01:10:43;;;;;;;29.30;15.43;;;;;;;-3.46;61.77;100894.80;1809758;79;20981;-57
2021/01/21 01:13:21;;;;;;;26.30;14.63;;;;;;;-3.42;61.86;100886.00;1888734;75;24752;-57
2021/01/21 01:15:51;;;;;;;21.90;11.97;;;;;;;-3.45;61.88;100885.84;1775376;80;20922;-57
2021/01/21 01:18:21;;;;;;;29.13;15.97;;;;;;;-3.42;61.96;100892.65;1773954;81;21202;-56
2021/01/21 01:20:49;;;;;;;28.07;16.00;;;;;;;-3.38;62.01;100895.33;1775409;80;21001;-57
2021/01/21 01:23:17;;;;;;;28.93;14.90;;;;;;;-3.30;61.95;100898.00;1773970;81;21013;-56
2021/01/21 01:25:46;;;;;;;24.87;14.60;;;;;;;-3.27;61.94;100897.69;1775409;80;21001;-57
2021/01/21 01:28:14;;;;;;;25.60;14.17;;;;;;;-3.20;61.88;100893.88;1774017;81;20978;-57
2021/01/21 01:30:42;;;;;;;28.90;15.50;;;;;;;-3.19;61.84;100891.58;1775322;80;22375;-57
2021/01/21 01:33:11;;;;;;;26.27;13.77;;;;;;;-3.17;61.80;100894.39;1773970;81;21022;-57
2021/01/21 01:35:40;;;;;;;27.13;14.80;;;;;;;-3.16;61.86;100885.91;1772102;80;21480;-57
2021/01/21 01:38:08;;;;;;;31.10;15.23;;;;;;;-3.16;61.84;100886.73;1756064;81;20951;-57
2021/01/21 01:40:37;;;;;;;26.90;14.80;;;;;;;-3.15;61.89;100891.06;1734401;82;20989;-56
2021/01/21 01:43:05;;;;;;;27.50;15.37;;;;;;;-3.11;61.90;100877.44;1756056;81;21211;-57
2021/01/21 01:45:34;;;;;;;27.67;14.73;;;;;;;-3.12;61.88;100879.77;1734267;82;21037;-56
2021/01/21 01:48:05;;;;;;;30.53;16.53;;;;;;;-3.14;61.95;100879.44;1738753;81;21472;-56
2021/01/21 01:50:40;;;;;;;28.57;15.30;;;;;;;-3.12;61.93;100881.93;1735617;82;20950;-58
2021/01/21 01:53:09;;;;;;;22.27;12.70;;;;;;;-3.05;61.98;100878.94;1735926;82;21472;-58
2021/01/21 01:55:40;;;;;;;26.07;15.17;;;;;;;-2.98;61.95;100875.98;1709818;82;21385;-57
2021/01/21 01:58:10;;;;;;;25.00;13.17;;;;;;;-2.96;61.87;100865.98;1734778;82;20953;-58
2021/01/21 02:00:43;;;;;;;25.03;14.73;;;;;;;-2.91;61.83;100872.98;1735511;82;20958;-58
2021/01/21 02:03:11;;;;;;;24.93;14.03;;;;;;;-2.92;61.83;100867.33;1735901;82;20899;-57
2021/01/21 02:05:42;;;;;;;28.57;14.67;;;;;;;-2.89;61.85;100868.34;1709851;82;21085;-57
2021/01/21 02:08:10;;;;;;;23.83;13.70;;;;;;;-2.86;61.86;100863.16;1735897;82;22635;-57
2021/01/21 02:10:39;;;;;;;24.07;14.03;;;;;;;-2.85;61.85;100867.48;1735825;82;21524;-56
2021/01/21 02:13:43;;;;;;;24.67;13.73;;;;;;;-2.86;61.91;100867.16;1733846;82;20953;-56
2021/01/21 02:16:18;;;;;;;20.47;12.17;;;;;;;-2.89;62.02;100865.67;1722786;82;20946;-56
2021/01/21 02:19:17;;;;;;;23.40;12.63;;;;;;;-2.89;62.14;100863.48;1735996;82;21547;-56
2021/01/21 02:22:17;;;;;;;24.83;14.10;;;;;;;-2.85;62.18;100860.00;1734902;82;21406;-57
2021/01/21 02:25:22;;;;;;;25.90;14.07;;;;;;;-2.93;62.20;100855.02;1735367;82;21132;-57
2021/01/21 02:28:11;;;;;;;24.47;12.60;;;;;;;-2.98;62.47;100845.36;1708094;82;20973;-57
2021/01/21 02:30:52;;;;;;;26.53;14.03;;;;;;;-2.95;62.55;100841.52;1735361;82;21016;-58
2021/01/21 02:33:43;;;;;;;33.30;16.17;;;;;;;-2.97;62.59;100838.20;1708095;82;21077;-58
2021/01/21 02:36:15;;;;;;;29.50;13.83;;;;;;;-2.99;62.73;100841.03;1735367;82;21363;-56
2021/01/21 02:38:43;;;;;;;28.23;13.97;;;;;;;-3.04;62.92;100837.17;1735379;82;20981;-56
2021/01/21 02:41:12;;;;;;;24.30;13.13;;;;;;;-3.05;63.11;100826.20;1708546;82;20934;-56
2021/01/21 02:43:40;;;;;;;25.63;11.97;;;;;;;-3.08;63.27;100825.22;1735430;82;21468;-55
2021/01/21 02:46:10;;;;;;;29.47;14.47;;;;;;;-3.05;63.40;100825.70;1735389;82;21053;-57
2021/01/21 02:48:39;;;;;;;26.03;12.93;;;;;;;-3.01;63.38;100823.05;1735389;82;21146;-56
2021/01/21 02:51:26;;;;;;;28.03;13.20;;;;;;;-2.96;63.41;100838.53;1735247;82;21528;-56
2021/01/21 02:54:02;;;;;;;25.08;12.53;;;;;;;-2.92;63.40;100837.20;1731683;82;20997;-55
2021/01/21 02:56:29;;;;;;;17.07;9.90;;;;;;;-2.88;63.34;100847.86;1735443;82;21504;-56
2021/01/21 02:59:00;;;;;;;27.40;14.47;;;;;;;-2.92;63.45;100836.70;1755597;81;21396;-56
2021/01/21 03:01:32;;;;;;;24.20;13.23;;;;;;;-2.93;63.59;100839.54;1733789;82;21381;-56
2021/01/21 03:04:02;;;;;;;28.53;14.70;;;;;;;-2.95;63.71;100841.52;1755535;81;21027;-56
2021/01/21 03:06:33;;;;;;;25.47;13.73;;;;;;;-2.97;63.84;100828.88;1733752;82;20975;-56
2021/01/21 03:09:01;;;;;;;33.53;16.63;;;;;;;-2.95;63.92;100824.21;1755517;81;21013;-56
2021/01/21 03:11:30;;;;;;;25.17;13.33;;;;;;;-2.95;63.95;100827.70;1707189;82;20966;-56
2021/01/21 03:14:00;;;;;;;27.13;14.03;;;;;;;-2.97;64.07;100819.06;1755256;81;21443;-58
2021/01/21 03:16:30;;;;;;;24.27;13.27;;;;;;;-2.99;64.22;100810.42;1733708;82;20970;-58
2021/01/21 03:18:58;;;;;;;24.80;11.83;;;;;;;-3.01;64.41;100808.91;1755541;81;21003;-58
2021/01/21 03:21:28;;;;;;;22.67;11.17;;;;;;;-3.01;64.56;100806.24;1733718;82;21571;-57
2021/01/21 03:23:58;;;;;;;28.23;13.73;;;;;;;-3.05;64.82;100807.56;1755413;81;20942;-59
2021/01/21 03:26:37;;;;;;;29.40;14.20;;;;;;;-3.09;64.90;100816.87;1731443;82;21228;-58
2021/01/21 03:29:10;;;;;;;23.10;12.43;;;;;;;-3.06;64.97;100818.71;1755033;81;21631;-57
2021/01/21 03:31:38;;;;;;;26.13;15.07;;;;;;;-3.02;65.03;100816.56;1733677;82;20993;-56
2021/01/21 03:34:07;;;;;;;30.10;15.73;;;;;;;-2.99;65.01;100823.73;1755450;81;20949;-57
2021/01/21 03:36:36;;;;;;;28.43;14.87;;;;;;;-2.94;64.97;100809.89;1733689;82;21128;-56
2021/01/21 03:39:04;;;;;;;30.43;13.37;;;;;;;-2.87;64.89;100812.24;1755444;81;21374;-55
2021/01/21 03:41:42;;;;;;;26.30;14.00;;;;;;;-2.82;64.81;100814.41;1732356;82;20971;-56
2021/01/21 03:44:12;;;;;;;29.97;15.03;;;;;;;-2.79;64.78;100820.21;1754293;81;21467;-57
2021/01/21 03:46:43;;;;;;;24.53;13.47;;;;;;;-2.77;64.74;100816.08;1733585;82;21057;-55
2021/01/21 03:49:12;;;;;;;25.90;13.87;;;;;;;-2.77;64.80;100807.58;1755330;81;20949;-55
2021/01/21 03:51:42;;;;;;;25.57;12.77;;;;;;;-2.75;64.82;100817.55;1732534;82;23590;-56
2021/01/21 03:54:11;;;;;;;26.67;13.37;;;;;;;-2.71;64.81;100820.73;1736654;81;20949;-56
2021/01/21 03:56:41;;;;;;;24.70;13.17;;;;;;;-2.73;64.89;100814.25;1733612;82;20958;-56
2021/01/21 03:59:09;;;;;;;28.60;14.00;;;;;;;-2.75;65.02;100822.88;1755402;81;20953;-57
2021/01/21 04:01:40;;;;;;;28.53;14.97;;;;;;;-2.74;65.10;100823.71;1732978;82;21105;-58
2021/01/21 04:04:08;;;;;;;28.30;14.60;;;;;;;-2.68;65.10;100824.41;1755418;81;21210;-56
2021/01/21 04:06:37;;;;;;;24.53;13.80;;;;;;;-2.61;64.99;100818.22;1733780;82;21587;-57
2021/01/21 04:09:07;;;;;;;27.33;15.13;;;;;;;-2.52;64.84;100819.55;1755353;81;21036;-56
2021/01/21 04:11:37;;;;;;;26.20;13.53;;;;;;;-2.44;64.68;100820.35;1732414;82;21061;-56
2021/01/21 04:14:07;;;;;;;24.07;13.13;;;;;;;-2.43;64.54;100815.89;1753966;81;21036;-56
2021/01/21 04:16:36;;;;;;;26.77;13.67;;;;;;;-2.45;64.55;100819.20;1754075;81;21215;-58
2021/01/21 04:19:04;;;;;;;28.93;14.93;;;;;;;-2.45;64.63;100812.54;1754043;81;21040;-57
2021/01/21 04:21:33;;;;;;;27.23;14.43;;;;;;;-2.41;64.61;100809.87;1754072;81;20946;-58
2021/01/21 04:24:04;;;;;;;30.93;14.50;;;;;;;-2.38;64.56;100817.04;1752423;81;21021;-60
2021/01/21 04:26:34;;;;;;;23.77;11.63;;;;;;;-2.36;64.52;100803.03;1753449;81;21028;-60
2021/01/21 04:29:03;;;;;;;26.07;15.07;;;;;;;-2.36;64.55;100809.70;1754084;81;23516;-60
2021/01/21 04:31:32;;;;;;;23.63;12.60;;;;;;;-2.40;64.54;100805.70;1754037;81;20957;-56
2021/01/21 04:34:05;;;;;;;26.77;13.50;;;;;;;-2.40;64.60;100813.69;1752492;81;21578;-56
2021/01/21 04:36:34;;;;;;;25.73;13.87;;;;;;;-2.41;64.73;100813.37;1754088;81;21669;-57
2021/01/21 04:39:04;;;;;;;27.97;14.67;;;;;;;-2.42;64.73;100811.71;1754060;81;20934;-58
2021/01/21 04:41:34;;;;;;;29.30;14.83;;;;;;;-2.40;64.74;100819.53;1730317;81;21379;-56
2021/01/21 04:44:07;;;;;;;31.03;16.07;;;;;;;-2.36;64.78;100831.52;1752202;81;21897;-56
2021/01/21 04:46:38;;;;;;;29.80;13.77;;;;;;;-2.28;64.61;100827.98;1753186;81;21001;-56
2021/01/21 04:49:06;;;;;;;29.73;16.73;;;;;;;-2.24;64.46;100830.15;1726211;81;21025;-57
2021/01/21 04:51:35;;;;;;;31.17;16.50;;;;;;;-2.25;64.38;100824.49;1715434;81;21065;-57
2021/01/21 04:54:07;;;;;;;30.00;15.80;;;;;;;-2.22;64.39;100835.34;1741345;81;21208;-58
2021/01/21 04:56:56;;;;;;;28.00;13.97;;;;;;;-2.18;64.33;100829.50;1723179;83;21068;-58
2021/01/21 04:59:27;;;;;;;26.37;13.53;;;;;;;-2.16;64.20;100828.81;1701743;83;21073;-57
2021/01/21 05:01:56;;;;;;;25.93;14.07;;;;;;;-2.19;64.22;100825.64;1724119;83;21008;-58
2021/01/21 05:04:24;;;;;;;27.27;15.57;;;;;;;-2.22;64.28;100820.67;1724063;83;21031;-58
2021/01/21 05:07:06;;;;;;;26.37;13.13;;;;;;;-2.23;64.36;100810.52;1704152;83;22206;-58
2021/01/21 05:09:35;;;;;;;25.93;13.07;;;;;;;-2.20;64.36;100807.48;1723964;83;21076;-58
2021/01/21 05:12:07;;;;;;;26.73;14.20;;;;;;;-2.20;64.41;100802.66;1724035;83;21062;-57
2021/01/21 05:16:55;;;;;;;25.53;13.83;;;;;;;-2.20;64.51;100787.50;1832062;77;23357;-57
2021/01/21 05:19:25;;;;;;;28.60;14.47;;;;;;;-2.29;64.58;100800.51;1771623;78;21595;-56
2021/01/21 05:22:14;;;;;;;29.10;14.07;;;;;;;-2.32;64.72;100798.70;1681479;81;21511;-58
2021/01/21 05:24:46;;;;;;;27.93;14.67;;;;;;;-2.28;64.82;100802.67;1741378;81;21028;-57
2021/01/21 05:27:17;;;;;;;26.93;14.57;;;;;;;-2.30;64.80;100808.18;1733307;81;21012;-57
2021/01/21 05:29:50;;;;;;;27.23;15.07;;;;;;;-2.30;64.90;100812.17;1739531;82;20953;-56
2021/01/21 05:32:20;;;;;;;31.30;16.00;;;;;;;-2.26;64.87;100816.17;1739379;82;20933;-56
2021/01/21 05:34:49;;;;;;;30.07;15.33;;;;;;;-2.24;64.83;100826.66;1722751;82;21397;-55
2021/01/21 05:37:25;;;;;;;30.43;15.27;;;;;;;-2.20;64.79;100827.48;1709994;83;20996;-56
2021/01/21 05:40:13;;;;;;;26.77;13.90;;;;;;;-2.16;64.74;100818.15;1658144;84;20953;-55
2021/01/21 05:42:57;;;;;;;30.53;15.90;;;;;;;-2.13;64.61;100819.16;1714349;83;21166;-56
2021/01/21 05:45:30;;;;;;;19.55;11.08;;;;;;;-2.14;64.63;100821.97;1723377;83;20939;-58
2021/01/21 05:48:01;;;;;;;32.63;15.77;;;;;;;-2.15;64.68;100828.31;1725441;83;21359;-58
2021/01/21 05:50:30;;;;;;;27.50;14.07;;;;;;;-2.17;64.70;100815.16;1708202;82;20961;-57
2021/01/21 05:52:59;;;;;;;30.73;15.40;;;;;;;-2.16;64.78;100809.32;1708199;82;21583;-57
2021/01/21 05:55:28;;;;;;;27.40;13.57;;;;;;;-2.15;64.81;100802.98;1735589;82;21004;-56
2021/01/21 05:57:58;;;;;;;29.67;14.50;;;;;;;-2.08;64.79;100799.95;1726959;82;21032;-56
2021/01/21 06:00:27;;;;;;;27.63;14.83;;;;;;;-2.06;64.76;100796.63;1719107;81;21383;-57
2021/01/21 06:03:00;;;;;;;27.17;14.57;;;;;;;-2.07;64.79;100803.47;1726011;82;21192;-56
2021/01/21 06:05:51;;;;;;;30.53;15.83;;;;;;;-2.03;64.82;100798.93;1873152;75;22696;-57
2021/01/21 06:08:23;;;;;;;30.97;16.20;;;;;;;-2.01;64.81;100800.94;1841495;78;21552;-54
2021/01/21 06:10:52;;;;;;;32.23;16.57;;;;;;;-1.95;64.75;100811.42;1840109;77;21409;-56
2021/01/21 06:13:20;;;;;;;24.37;13.80;;;;;;;-1.92;64.63;100807.91;1830183;77;20933;-54
2021/01/21 06:15:48;;;;;;;30.30;16.27;;;;;;;-1.88;64.61;100805.71;1784207;78;20906;-54
2021/01/21 06:18:16;;;;;;;33.20;17.50;;;;;;;-1.83;64.57;100806.85;1810886;78;21560;-52
2021/01/21 06:21:01;;;;;;;31.03;17.10;;;;;;;-1.71;64.43;100805.16;1776628;79;24225;-52
2021/01/21 06:23:43;;;;;;;27.83;15.10;;;;;;;-1.68;64.33;100809.63;1747073;82;21488;-53
2021/01/21 06:26:13;;;;;;;28.00;14.57;;;;;;;-1.65;64.29;100819.13;1746065;82;21430;-53
2021/01/21 06:28:41;;;;;;;26.80;15.50;;;;;;;-1.61;64.19;100817.28;1749353;82;21504;-53
2021/01/21 06:31:09;;;;;;;24.93;14.43;;;;;;;-1.62;64.26;100823.63;1749427;82;21493;-53
2021/01/21 06:33:40;;;;;;;34.67;16.70;;;;;;;-1.56;64.22;100830.10;1720554;82;21053;-53
2021/01/21 06:36:11;;;;;;;38.97;18.83;;;;;;;-1.48;64.12;100833.22;1733743;82;20981;-53
2021/01/21 06:38:43;;;;;;;27.70;15.43;;;;;;;-1.48;64.00;100834.05;1719685;83;21551;-53
2021/01/21 06:41:16;;;;;;;29.07;16.83;;;;;;;-1.46;64.10;100843.23;1719568;83;20930;-51
2021/01/21 06:43:44;;;;;;;26.60;14.47;;;;;;;-1.44;64.07;100820.69;1719671;83;21588;-54
2021/01/21 06:46:14;;;;;;;32.40;16.73;;;;;;;-1.39;64.01;100816.16;1719525;82;21052;-51
2021/01/21 06:48:49;;;;;;;37.27;17.63;;;;;;;-1.38;63.97;100822.65;1719591;83;21619;-52
2021/01/21 06:51:18;;;;;;;33.33;17.03;;;;;;;-1.34;63.95;100823.14;1718529;83;22202;-52
2021/01/21 06:53:51;;;;;;;30.63;14.77;;;;;;;-1.32;63.94;100825.11;1719398;83;21556;-51
2021/01/21 06:56:19;;;;;;;30.23;16.87;;;;;;;-1.28;63.92;100821.09;1719572;83;21041;-53
2021/01/21 06:58:55;;;;;;;29.20;16.77;;;;;;;-1.26;63.87;100814.27;1719604;83;20950;-52
2021/01/21 07:01:40;;;;;;;28.65;16.65;;;;;;;-1.26;63.89;100824.94;1719799;83;20973;-52
2021/01/21 07:04:21;;;;;;;34.58;17.12;;;;;;;-1.23;63.88;100827.23;1719786;82;21339;-51
2021/01/21 07:06:58;;;;;;;31.43;17.60;;;;;;;-1.17;63.87;100827.86;1719505;83;21163;-53
2021/01/21 07:09:26;;;;;;;34.00;17.48;;;;;;;-1.14;63.80;100827.02;1719657;82;20993;-53
2021/01/21 07:11:57;;;;;;;33.77;16.87;;;;;;;-1.10;63.83;100826.17;1706914;83;21008;-52
2021/01/21 07:14:28;;;;;;;26.10;12.93;;;;;;;-1.02;63.71;100825.27;1694345;83;21590;-52
2021/01/21 07:16:59;;;;;;;28.93;16.57;;;;;;;-0.95;63.57;100822.22;1686289;83;22269;-54
2021/01/21 07:19:34;;;;;;;27.70;14.83;;;;;;;-0.91;63.46;100819.50;1681159;84;21118;-53
2021/01/21 07:22:23;;;;;;;35.98;17.57;;;;;;;-0.87;63.39;100820.81;1658222;86;21683;-53
2021/01/21 07:25:01;;;;;;;27.10;14.07;;;;;;;-0.85;63.39;100808.95;1680211;84;21118;-54
2021/01/21 07:27:31;;;;;;;32.80;17.27;;;;;;;-0.79;63.33;100803.39;1661314;86;21194;-58
2021/01/21 07:30:21;;;;;;;24.17;13.20;;;;;;;-0.80;63.27;100801.23;1701055;84;21049;-56
2021/01/21 07:33:25;;;;;;;28.60;16.30;;;;;;;-0.76;63.22;100797.70;1685547;84;20920;-59
2021/01/21 07:35:53;;;;;;;29.37;16.30;;;;;;;-0.74;63.17;100798.34;1708481;83;21598;-54
2021/01/21 07:38:47;;;;;;;28.47;16.10;;;;;;;-0.75;63.27;100793.19;1683163;84;21151;-55
2021/01/21 07:41:48;;;;;;;25.92;13.90;;;;;;;-0.72;63.35;100800.82;1681297;85;21374;-58
2021/01/21 07:44:16;;;;;;;30.33;16.70;;;;;;;-0.69;63.24;100789.27;1659659;85;21539;-56
2021/01/21 07:46:44;;;;;;;32.63;17.13;;;;;;;-0.69;63.33;100789.78;1637397;87;21027;-60
2021/01/21 07:49:25;;;;;;;31.53;17.57;;;;;;;-0.66;63.32;100790.73;1636047;86;21048;-52
2021/01/21 07:52:04;;;;;;;31.10;17.10;;;;;;;-0.60;63.31;100792.71;1653476;86;21094;-55
2021/01/21 07:54:49;;;;;;;30.40;16.30;;;;;;;-0.55;63.28;100789.81;1653492;85;21517;-61
2021/01/21 07:57:22;;;;;;;19.57;11.33;;;;;;;-0.48;63.23;100783.23;1653657;86;22415;-58
2021/01/21 08:00:00;;;;;;;26.37;15.17;;;;;;;-0.42;63.08;100781.66;1653455;85;20992;-56
2021/01/21 08:02:44;;;;;;;26.13;15.30;;;;;;;-0.43;63.07;100788.86;1653421;85;21027;-59
2021/01/21 08:05:13;;;;;;;32.13;16.73;;;;;;;-0.44;63.16;100779.69;1653198;85;21605;-58
2021/01/21 08:07:55;;;;;;;28.83;15.70;;;;;;;-0.42;63.37;100783.00;1653494;85;21245;-53
2021/01/21 08:10:28;;;;;;;28.03;17.07;;;;;;;-0.35;63.22;100775.92;1653441;86;21585;-55
2021/01/21 08:13:02;;;;;;;28.77;16.87;;;;;;;-0.29;63.12;100781.36;1658926;85;21224;-56
2021/01/21 08:15:32;;;;;;;27.00;15.10;;;;;;;-0.22;63.01;100778.77;1648892;86;21164;-54
2021/01/21 08:18:01;;;;;;;29.30;15.60;;;;;;;-0.18;62.92;100775.23;1677680;84;21034;-57
2021/01/21 08:20:30;;;;;;;31.87;16.67;;;;;;;-0.12;62.82;100782.00;1677276;84;21038;-54
2021/01/21 08:23:05;;;;;;;31.87;17.70;;;;;;;-0.01;62.68;100780.19;1677242;84;21281;-53
2021/01/21 08:25:46;;;;;;;26.63;16.63;;;;;;;0.10;62.60;100776.72;1676843;84;21017;-55
2021/01/21 08:28:19;;;;;;;32.73;17.87;;;;;;;0.22;62.36;100779.27;1676737;84;21046;-56
2021/01/21 08:33:27;;;;;;;26.13;15.47;;;;;;;0.40;61.75;100765.47;1868809;76;22796;-57
2021/01/21 08:36:04;;;;;;;26.00;14.95;;;;;;;0.40;61.57;100775.66;1817178;77;21139;-61
2021/01/21 08:38:36;;;;;;;;;;;;;;;0.43;61.57;100777.15;1819448;78;21189;-58
2021/01/21 08:41:04;;;;;;;28.07;15.60;;;;;;;0.53;61.49;100764.80;1791394;77;20154;-61
2021/01/21 08:43:32;;;;;;;29.45;16.55;;;;;;;0.67;61.31;100773.30;1822015;77;20972;-58
2021/01/21 08:46:17;;;;;;;28.07;15.40;;;;;;;0.86;61.31;100768.63;1825547;77;20997;-55
2021/01/21 08:48:48;;;;;;;30.80;15.90;;;;;;;1.04;60.73;100767.68;1819683;77;20996;-57
2021/01/21 08:51:42;;;;;;;32.90;17.67;;;;;;;1.15;60.26;100761.48;1816170;78;22474;-50
2021/01/21 08:54:16;;;;;;;30.88;15.72;;;;;;;1.16;60.14;100761.28;1821753;77;21078;-57
2021/01/21 08:57:08;;;;;;;29.30;17.40;;;;;;;1.24;59.76;100754.97;1816896;78;21178;-51
2021/01/21 08:59:38;;;;;;;24.35;14.10;;;;;;;1.31;59.77;100754.49;1816171;79;20981;-55
2021/01/21 09:02:06;;;;;;;28.73;16.67;;;;;;;1.50;59.43;100754.33;1816403;78;21578;-53
2021/01/21 09:04:36;;;;;;;30.00;16.25;;;;;;;1.56;59.16;100740.13;1816361;79;21421;-56
2021/01/21 09:07:06;;;;;;;25.02;15.20;;;;;;;1.62;58.93;100739.86;1833999;78;20968;-55
2021/01/21 09:09:41;;;;;;;28.83;16.60;;;;;;;1.64;58.46;100738.65;1816171;78;21014;-60
2021/01/21 09:12:18;;;;;;;;;;;;;;;1.58;58.72;100748.00;1819153;77;21065;-53
2021/01/21 09:15:03;;;;;;;26.23;15.65;;;;;;;1.56;58.72;100752.20;1819543;77;20210;-49
2021/01/21 09:17:32;;;;;;;25.52;15.18;;;;;;;1.53;58.81;100744.56;1826805;77;21618;-56
2021/01/21 09:20:19;;;;;;;27.10;16.40;;;;;;;1.55;58.86;100747.35;1826567;77;21508;-59
2021/01/21 09:22:49;;;;;;;25.97;15.20;;;;;;;1.59;58.94;100747.80;1819440;78;21024;-55
2021/01/21 09:25:27;;;;;;;24.37;14.95;;;;;;;1.68;58.81;100748.48;1821657;78;21108;-54
2021/01/21 09:28:00;;;;;;;27.67;15.90;;;;;;;1.74;58.67;100743.66;1821723;77;21158;-56
2021/01/21 09:30:30;;;;;;;27.00;15.60;;;;;;;1.83;58.68;100746.50;1821824;77;21763;-53
2021/01/21 09:32:59;;;;;;;29.15;15.75;;;;;;;1.89;58.28;100739.00;1814440;78;21574;-52
2021/01/21 09:35:27;;;;;;;27.65;15.18;;;;;;;1.89;58.17;100752.93;1811326;78;21060;-60
2021/01/21 09:37:57;;;;;;;27.87;16.23;;;;;;;1.83;58.45;100738.45;1811444;78;20926;-55
2021/01/21 09:40:32;;;;;;;25.77;16.52;;;;;;;1.86;58.62;100744.75;1811436;79;20930;-51
2021/01/21 09:43:02;;;;;;;24.82;15.23;;;;;;;1.91;58.43;100742.81;1811195;78;22256;-57
2021/01/21 09:45:31;;;;;;;24.15;14.68;;;;;;;1.96;57.98;100742.53;1810910;79;21706;-58
2021/01/21 09:47:59;;;;;;;23.90;15.08;;;;;;;1.84;58.07;100744.12;1797388;79;21225;-57
2021/01/21 09:50:28;;;;;;;24.85;15.93;;;;;;;1.79;58.36;100742.55;1810772;79;21378;-59
2021/01/21 09:52:56;;;;;;;26.70;15.10;;;;;;;1.84;58.51;100744.65;1810817;79;20997;-54
2021/01/21 09:55:24;;;;;;;23.50;14.15;;;;;;;1.92;58.48;100748.49;1810802;79;21353;-53
2021/01/21 09:57:53;;;;;;;26.33;15.25;;;;;;;1.97;58.22;100744.18;1810791;78;20937;-56
2021/01/21 10:00:22;;;;;;;30.30;16.70;;;;;;;1.92;58.14;100737.23;1810770;79;21001;-51
2021/01/21 10:02:50;;;;;;;26.48;15.45;;;;;;;1.92;58.08;100731.05;1810784;79;20989;-51
2021/01/21 10:05:19;;;;;;;25.65;16.07;;;;;;;1.91;58.27;100730.73;1810698;79;20953;-56
2021/01/21 10:07:49;;;;;;;23.00;12.65;;;;;;;1.95;58.37;100739.53;1810883;79;21437;-56
2021/01/21 10:10:19;;;;;;;23.67;14.95;;;;;;;2.03;58.26;100735.87;1810795;78;20934;-56
2021/01/21 10:12:48;;;;;;;29.77;17.02;;;;;;;2.07;58.11;100743.81;1810804;79;21064;-58
2021/01/21 10:15:16;;;;;;;26.95;16.95;;;;;;;2.03;58.16;100746.61;1810809;78;20981;-66
2021/01/21 10:17:44;;;;;;;23.87;13.88;;;;;;;2.06;58.34;100745.67;1810700;79;21107;-57
2021/01/21 10:20:15;;;;;;;26.73;16.15;;;;;;;2.11;58.05;100754.98;1810655;78;21195;-52
2021/01/21 10:22:43;;;;;;;26.62;14.90;;;;;;;2.04;58.06;100743.72;1810739;79;21379;-50
2021/01/21 10:25:12;;;;;;;22.60;12.78;;;;;;;2.13;58.24;100740.36;1810733;79;20970;-51
2021/01/21 10:27:40;;;;;;;22.73;14.58;;;;;;;2.18;58.03;100735.22;1810854;78;21556;-52
2021/01/21 10:30:11;;;;;;;29.90;15.70;;;;;;;2.15;57.91;100736.95;1810963;79;21571;-52
2021/01/21 10:32:39;;;;;;;23.18;14.53;;;;;;;2.11;58.27;100736.20;1810730;78;21523;-51
2021/01/21 10:35:17;;;;;;;27.75;16.10;;;;;;;2.13;58.32;100728.77;1810732;78;21012;-59
2021/01/21 10:37:44;;;;;;;24.57;15.03;;;;;;;2.07;58.06;100729.88;1810794;79;21493;-55
2021/01/21 10:40:14;;;;;;;26.17;14.55;;;;;;;1.97;58.24;100730.77;1810776;79;21563;-56
2021/01/21 10:42:42;;;;;;;29.25;15.88;;;;;;;1.92;58.40;100725.68;1810837;79;21556;-56
2021/01/21 10:45:12;;;;;;;25.30;15.18;;;;;;;1.92;58.67;100718.97;1810840;78;22249;-56
2021/01/21 10:47:41;;;;;;;25.75;15.83;;;;;;;1.92;58.67;100724.34;1810522;79;21567;-54
2021/01/21 10:50:12;;;;;;;26.15;15.48;;;;;;;1.87;58.85;100716.06;1810710;78;21104;-52
2021/01/21 10:52:39;;;;;;;24.60;15.18;;;;;;;1.87;58.85;100717.40;1810677;79;20982;-54
2021/01/21 10:55:11;;;;;;;26.75;16.35;;;;;;;1.81;58.76;100712.32;1810890;79;20930;-58
2021/01/21 10:57:39;;;;;;;25.10;15.18;;;;;;;1.77;58.97;100704.34;1810732;79;21410;-54
2021/01/21 11:00:09;;;;;;;27.45;16.25;;;;;;;1.80;59.06;100716.03;1810699;79;21167;-52
2021/01/21 11:02:38;;;;;;;25.08;15.98;;;;;;;1.77;59.10;100708.37;1799815;79;21029;-57
2021/01/21 11:05:08;;;;;;;26.80;16.00;;;;;;;1.79;59.21;100695.09;1810855;79;21484;-59
2021/01/21 11:07:35;;;;;;;29.98;16.97;;;;;;;1.83;59.30;100688.82;1810847;79;20929;-56
2021/01/21 11:10:07;;;;;;;27.45;15.50;;;;;;;1.91;59.37;100687.80;1810708;79;21527;-58
2021/01/21 11:12:36;;;;;;;26.05;15.08;;;;;;;1.98;59.35;100686.82;1811591;78;21019;-57
2021/01/21 11:15:08;;;;;;;28.30;15.08;;;;;;;2.12;59.05;100697.59;1810726;78;21148;-53
2021/01/21 11:17:36;;;;;;;26.23;14.95;;;;;;;2.22;59.00;100685.44;1810697;79;21037;-59
2021/01/21 11:20:06;;;;;;;26.90;15.63;;;;;;;2.42;58.75;100680.12;1810801;78;21063;-56
2021/01/21 11:22:37;;;;;;;24.02;15.55;;;;;;;2.63;58.36;100677.77;1810825;79;21182;-55
2021/01/21 11:25:12;;;;;;;31.05;18.80;;;;;;;2.89;57.93;100672.95;1810808;79;21016;-57
2021/01/21 11:27:38;;;;;;;28.55;17.45;;;;;;;3.16;57.55;100676.97;1808955;79;21235;-55
2021/01/21 11:30:11;;;;;;;30.85;17.77;;;;;;;3.46;56.59;100664.72;1810428;79;21013;-54
2021/01/21 11:32:40;;;;;;;24.43;16.07;;;;;;;3.70;55.96;100674.46;1799166;78;21012;-56
2021/01/21 11:35:09;;;;;;;26.82;16.73;;;;;;;3.94;55.35;100667.55;1820894;77;21752;-56
2021/01/21 11:37:37;;;;;;;24.25;15.93;;;;;;;4.14;54.80;100659.68;1820936;78;21226;-53
2021/01/21 11:40:07;;;;;;;30.75;19.25;;;;;;;4.32;54.37;100668.93;1821032;78;20878;-56